NCAR-RAP Real-Time Weather Data

Output produced by METARs form (06 May 2021  16:25 UTC)
found at http://weather.rap.ucar.edu/surface/
 
KGRB 061553Z 31009G16KT 10SM BKN070 13/00 A3009 RMK AO2 SLP193 T01330000
KGRB 061453Z 10SM FEW100 13/03 A3011 RMK AO2 SLP198 T01280033 58001 $
KGRB 061353Z 27005KT 10SM OVC100 10/04 A3012 RMK AO2 SLP203 T01000039 $
KGRB 061253Z 31004KT 10SM OVC100 08/03 A3012 RMK AO2 SLP204 T00780033 $
KGRB 061153Z 00000KT 10SM BKN080 07/03 A3011 RMK AO2 SLP199 T00670028 10089 20067 53002 $
KGRB 061053Z 27005KT 10SM SCT070 OVC085 07/03 A3010 RMK AO2 SLP195 T00670028 $
KGRB 060953Z AUTO 32004KT 10SM OVC065 07/03 A3010 RMK AO2 SLP197 T00670028 $
KGRB 060853Z AUTO 32004KT 10SM OVC070 07/03 A3010 RMK AO2 SLP197 T00720028 53001 $
KGRB 060753Z AUTO 34004KT 10SM OVC085 07/03 A3009 RMK AO2 SLP194 T00720033 $
KGRB 060653Z AUTO 06005KT 10SM BKN070 OVC090 08/03 A3010 RMK AO2 SLP194 T00780028 $
KGRB 060553Z AUTO VRB06G15KT 10SM OVC075 09/03 A3010 RMK AO2 SLP196 T00890028 10144 20078 401610022 58003 $
KGRB 060453Z AUTO 00000KT 10SM OVC075 08/03 A3011 RMK AO2 SLP198 T00830033 $
KGRB 060353Z AUTO 19003KT 10SM OVC085 08/03 A3011 RMK AO2 SLP202 T00830028 $
KGRB 060253Z AUTO 14007KT 10SM OVC085 08/02 A3011 RMK AO2 SLP200 T00830022 51010 $
KGRB 060153Z AUTO 13007KT 10SM BKN085 BKN110 09/03 A3010 RMK AO2 SLP199 T00940028 $